PWSweather.com
Personal Weather Stations
Station Observations
WAIROAHB
Wairoa, Northern Hawkes Bay -NZ 4108

WairoaNorthern Hawkes Bay -NZ 4108

Lat: -39.04516934, Lon: 177.4263989

Elevation: 156

Station Type: WS3083

http://wairoa.net/weather/index.htm

High Low Average
Temperature 72.5°F22.5°C 58.8°F14.9°C 63.6°F17.6°C
Dew Point 65.7°F18.7°C 58.6°F14.8°C 62.0°F16.7°C
Winds 9.2 mph 14.8 kmh Calm Calm 2.0 mph SE3.2 kmh SE
Wind Gusts 12.1 mph19.5 kmh -- 4.0 mph6.4 kmh
Humidity 99% 78% 95%
Pressure 29.92 in1013.2 mb 29.84 in1010.5 mb -
Precipitation 0.14 in3.6 mm - -
Hour Temp Dew Point Humidity Winds Wind Gusts Pressure Precip Precip Rate Daily Precip Total
12:00 AM 60.1°F15.6°C 59.8°F15.4°C 99% Calm Calm -- 29.89 in1012.2 mb 0.00 in0.0 mm 0.00 in0.0 mm 0.00 in0.0 mm
12:10 AM 60.3°F15.7°C 60.0°F15.6°C 99% Calm Calm -- 29.89 in1012.2 mb 0.00 in0.0 mm 0.00 in0.0 mm 0.00 in0.0 mm
12:20 AM 60.3°F15.7°C 60.0°F15.6°C 99% Calm Calm -- 29.89 in1012.2 mb 0.00 in0.0 mm 0.00 in0.0 mm 0.00 in0.0 mm
12:30 AM 60.3°F15.7°C 60.0°F15.6°C 99% Calm Calm -- 29.88 in1011.9 mb 0.00 in0.0 mm 0.00 in0.0 mm 0.00 in0.0 mm
12:40 AM 60.3°F15.7°C 60.0°F15.6°C 99% Calm Calm -- 29.87 in1011.5 mb 0.00 in0.0 mm 0.00 in0.0 mm 0.00 in0.0 mm
12:50 AM 60.1°F15.6°C 59.8°F15.4°C 99% Calm Calm -- 29.88 in1011.9 mb 0.00 in0.0 mm 0.00 in0.0 mm 0.00 in0.0 mm
01:00 AM 60.1°F15.6°C 59.8°F15.4°C 99% 0.7 mph NE1.1 kmh NE 3.8 mph6.1 kmh 29.87 in1011.5 mb 0.00 in0.0 mm 0.00 in0.0 mm 0.00 in0.0 mm
01:10 AM 60.1°F15.6°C 59.8°F15.4°C 99% Calm Calm 2.2 mph3.5 kmh 29.87 in1011.5 mb 0.00 in0.0 mm 0.00 in0.0 mm 0.00 in0.0 mm
01:20 AM 60.3°F15.7°C 60.0°F15.6°C 99% Calm Calm -- 29.86 in1011.2 mb 0.00 in0.0 mm 0.00 in0.0 mm 0.00 in0.0 mm
01:30 AM 60.3°F15.7°C 60.0°F15.6°C 99% Calm Calm -- 29.86 in1011.2 mb 0.00 in0.0 mm 0.00 in0.0 mm 0.00 in0.0 mm
01:40 AM 60.3°F15.7°C 60.0°F15.6°C 99% Calm Calm -- 29.86 in1011.2 mb 0.00 in0.0 mm 0.00 in0.0 mm 0.00 in0.0 mm
01:50 AM 60.3°F15.7°C 60.0°F15.6°C 99% Calm Calm -- 29.85 in1010.8 mb 0.00 in0.0 mm 0.00 in0.0 mm 0.00 in0.0 mm
02:00 AM 60.3°F15.7°C 60.0°F15.6°C 99% 1.6 mph NNE2.6 kmh NNE 4.5 mph7.2 kmh 29.85 in1010.8 mb 0.00 in0.0 mm 0.00 in0.0 mm 0.00 in0.0 mm
02:10 AM 60.1°F15.6°C 59.8°F15.4°C 99% Calm Calm 3.1 mph5.0 kmh 29.85 in1010.8 mb 0.00 in0.0 mm 0.00 in0.0 mm 0.00 in0.0 mm
02:20 AM 60.1°F15.6°C 59.8°F15.4°C 99% 3.1 mph NW5.0 kmh NW 3.8 mph6.1 kmh 29.84 in1010.5 mb 0.00 in0.0 mm 0.00 in0.0 mm 0.00 in0.0 mm
02:30 AM 60.1°F15.6°C 59.8°F15.4°C 99% Calm Calm 3.8 mph6.1 kmh 29.84 in1010.5 mb 0.00 in0.0 mm 0.00 in0.0 mm 0.00 in0.0 mm
02:40 AM 60.1°F15.6°C 59.8°F15.4°C 99% Calm Calm 3.8 mph6.1 kmh 29.84 in1010.5 mb 0.00 in0.0 mm 0.00 in0.0 mm 0.00 in0.0 mm
02:50 AM 59.9°F15.5°C 59.6°F15.3°C 99% 0.7 mph NW1.1 kmh NW 4.5 mph7.2 kmh 29.84 in1010.5 mb 0.00 in0.0 mm 0.00 in0.0 mm 0.00 in0.0 mm
03:00 AM 59.9°F15.5°C 59.6°F15.3°C 99% 2.2 mph NNW3.5 kmh NNW 3.8 mph6.1 kmh 29.84 in1010.5 mb 0.00 in0.0 mm 0.00 in0.0 mm 0.00 in0.0 mm
03:10 AM 59.7°F15.4°C 59.5°F15.3°C 99% 3.8 mph NW6.1 kmh NW 5.4 mph8.7 kmh 29.84 in1010.5 mb 0.00 in0.0 mm 0.00 in0.0 mm 0.00 in0.0 mm
03:20 AM 59.7°F15.4°C 59.5°F15.3°C 99% Calm Calm 4.5 mph7.2 kmh 29.84 in1010.5 mb 0.00 in0.0 mm 0.00 in0.0 mm 0.00 in0.0 mm
03:30 AM 59.5°F15.3°C 59.3°F15.2°C 99% 3.1 mph NNW5.0 kmh NNW 4.5 mph7.2 kmh 29.84 in1010.5 mb 0.00 in0.0 mm 0.00 in0.0 mm 0.00 in0.0 mm
03:40 AM 59.5°F15.3°C 59.3°F15.2°C 99% 2.2 mph NW3.5 kmh NW 5.4 mph8.7 kmh 29.84 in1010.5 mb 0.00 in0.0 mm 0.00 in0.0 mm 0.00 in0.0 mm
03:50 AM 59.4°F15.2°C 59.1°F15.1°C 99% 2.2 mph NW3.5 kmh NW 6.9 mph11.1 kmh 29.84 in1010.5 mb 0.00 in0.0 mm 0.00 in0.0 mm 0.00 in0.0 mm
04:00 AM 59.2°F15.1°C 58.9°F14.9°C 99% 3.1 mph NNW5.0 kmh NNW 7.6 mph12.2 kmh 29.84 in1010.5 mb 0.00 in0.0 mm 0.00 in0.0 mm 0.00 in0.0 mm
04:10 AM 59.0°F15.0°C 58.7°F14.8°C 99% 2.2 mph NNW3.5 kmh NNW 6.9 mph11.1 kmh 29.84 in1010.5 mb 0.00 in0.0 mm 0.00 in0.0 mm 0.00 in0.0 mm
04:20 AM 58.8°F14.9°C 58.6°F14.8°C 99% 3.8 mph NNW6.1 kmh NNW 6.0 mph9.7 kmh 29.85 in1010.8 mb 0.00 in0.0 mm 0.00 in0.0 mm 0.00 in0.0 mm
04:30 AM 58.8°F14.9°C 58.6°F14.8°C 99% 4.5 mph NW7.2 kmh NW 9.2 mph14.8 kmh 29.84 in1010.5 mb 0.00 in0.0 mm 0.00 in0.0 mm 0.00 in0.0 mm
04:40 AM 58.8°F14.9°C 58.6°F14.8°C 99% 3.8 mph NW6.1 kmh NW 7.6 mph12.2 kmh 29.84 in1010.5 mb 0.00 in0.0 mm 0.00 in0.0 mm 0.00 in0.0 mm
04:50 AM 59.0°F15.0°C 58.7°F14.8°C 99% 3.8 mph NW6.1 kmh NW 7.6 mph12.2 kmh 29.84 in1010.5 mb 0.00 in0.0 mm 0.00 in0.0 mm 0.00 in0.0 mm
05:00 AM 59.2°F15.1°C 58.9°F14.9°C 99% 3.8 mph NNW6.1 kmh NNW 6.9 mph11.1 kmh 29.85 in1010.8 mb 0.00 in0.0 mm 0.00 in0.0 mm 0.00 in0.0 mm
05:10 AM 59.2°F15.1°C 58.9°F14.9°C 99% 3.8 mph NNW6.1 kmh NNW 6.9 mph11.1 kmh 29.85 in1010.8 mb 0.00 in0.0 mm 0.00 in0.0 mm 0.00 in0.0 mm
05:20 AM 59.4°F15.2°C 59.1°F15.1°C 99% 3.1 mph NW5.0 kmh NW 7.6 mph12.2 kmh 29.85 in1010.8 mb 0.00 in0.0 mm 0.00 in0.0 mm 0.00 in0.0 mm
05:30 AM 59.4°F15.2°C 59.1°F15.1°C 99% 3.8 mph NW6.1 kmh NW 6.9 mph11.1 kmh 29.85 in1010.8 mb 0.00 in0.0 mm 0.00 in0.0 mm 0.00 in0.0 mm
05:40 AM 59.4°F15.2°C 59.1°F15.1°C 99% 2.2 mph NW3.5 kmh NW 6.9 mph11.1 kmh 29.85 in1010.8 mb 0.00 in0.0 mm 0.00 in0.0 mm 0.00 in0.0 mm
05:50 AM 59.5°F15.3°C 59.3°F15.2°C 99% 2.2 mph NNW3.5 kmh NNW 6.0 mph9.7 kmh 29.85 in1010.8 mb 0.00 in0.0 mm 0.00 in0.0 mm 0.00 in0.0 mm
06:00 AM 59.9°F15.5°C 59.6°F15.3°C 99% 2.2 mph NNW3.5 kmh NNW 4.5 mph7.2 kmh 29.85 in1010.8 mb 0.00 in0.0 mm 0.00 in0.0 mm 0.00 in0.0 mm
06:10 AM 60.3°F15.7°C 60.0°F15.6°C 99% 3.8 mph NW6.1 kmh NW 5.4 mph8.7 kmh 29.85 in1010.8 mb 0.00 in0.0 mm 0.00 in0.0 mm 0.00 in0.0 mm
06:20 AM 60.6°F15.9°C 60.4°F15.8°C 99% 3.8 mph NW6.1 kmh NW 6.0 mph9.7 kmh 29.85 in1010.8 mb 0.01 in0.3 mm 0.06 in1.5 mm 0.01 in0.3 mm
06:30 AM 61.2°F16.2°C 60.6°F15.9°C 98% 3.8 mph NW6.1 kmh NW 6.0 mph9.7 kmh 29.86 in1011.2 mb 0.01 in0.3 mm 0.00 in0.0 mm 0.01 in0.3 mm
06:40 AM 61.7°F16.5°C 61.1°F16.2°C 98% 2.2 mph NNW3.5 kmh NNW 6.0 mph9.7 kmh 29.86 in1011.2 mb 0.01 in0.3 mm 0.00 in0.0 mm 0.01 in0.3 mm
06:50 AM 62.4°F16.9°C 61.9°F16.6°C 98% 3.1 mph N5.0 kmh N 6.9 mph11.1 kmh 29.86 in1011.2 mb 0.01 in0.3 mm 0.00 in0.0 mm 0.01 in0.3 mm
07:00 AM 63.3°F17.4°C 62.5°F16.9°C 97% Calm Calm 5.4 mph8.7 kmh 29.86 in1011.2 mb 0.01 in0.3 mm 0.00 in0.0 mm 0.01 in0.3 mm
07:10 AM 64.2°F17.9°C 63.4°F17.4°C 97% 0.7 mph NW1.1 kmh NW 3.8 mph6.1 kmh 29.87 in1011.5 mb 0.01 in0.3 mm 0.00 in0.0 mm 0.01 in0.3 mm
07:20 AM 64.8°F18.2°C 64.2°F17.9°C 98% 0.7 mph NW1.1 kmh NW 6.0 mph9.7 kmh 29.87 in1011.5 mb 0.00 in0.0 mm 0.00 in0.0 mm 0.01 in0.3 mm
07:30 AM 66.0°F18.9°C 65.2°F18.4°C 97% Calm Calm 3.1 mph5.0 kmh 29.87 in1011.5 mb 0.00 in0.0 mm 0.00 in0.0 mm 0.01 in0.3 mm
07:40 AM 66.4°F19.1°C 64.6°F18.1°C 94% Calm Calm 3.8 mph6.1 kmh 29.87 in1011.5 mb 0.00 in0.0 mm 0.00 in0.0 mm 0.01 in0.3 mm
07:50 AM 67.1°F19.5°C 64.7°F18.2°C 92% Calm Calm 4.5 mph7.2 kmh 29.88 in1011.9 mb 0.00 in0.0 mm 0.00 in0.0 mm 0.01 in0.3 mm
08:00 AM 67.6°F19.8°C 64.6°F18.1°C 90% Calm Calm 2.2 mph3.5 kmh 29.88 in1011.9 mb 0.00 in0.0 mm 0.00 in0.0 mm 0.01 in0.3 mm
08:10 AM 67.5°F19.7°C 63.5°F17.5°C 87% 2.2 mph NW3.5 kmh NW 3.8 mph6.1 kmh 29.88 in1011.9 mb 0.00 in0.0 mm 0.00 in0.0 mm 0.01 in0.3 mm
08:20 AM 68.0°F20.0°C 63.7°F17.6°C 86% 2.2 mph NW3.5 kmh NW 4.5 mph7.2 kmh 29.88 in1011.9 mb 0.00 in0.0 mm 0.00 in0.0 mm 0.01 in0.3 mm
08:30 AM 69.6°F20.9°C 64.3°F17.9°C 83% 1.6 mph WNW2.6 kmh WNW 4.5 mph7.2 kmh 29.87 in1011.5 mb 0.00 in0.0 mm 0.00 in0.0 mm 0.01 in0.3 mm
08:40 AM 71.1°F21.7°C 65.7°F18.7°C 83% 3.1 mph W5.0 kmh W 6.0 mph9.7 kmh 29.88 in1011.9 mb 0.00 in0.0 mm 0.00 in0.0 mm 0.01 in0.3 mm
08:50 AM 71.2°F21.8°C 64.8°F18.2°C 80% 3.1 mph WNW5.0 kmh WNW 6.0 mph9.7 kmh 29.88 in1011.9 mb 0.00 in0.0 mm 0.00 in0.0 mm 0.01 in0.3 mm
09:00 AM 71.8°F22.1°C 65.7°F18.7°C 81% 2.2 mph ESE3.5 kmh ESE 4.5 mph7.2 kmh 29.88 in1011.9 mb 0.00 in0.0 mm 0.00 in0.0 mm 0.01 in0.3 mm
09:10 AM 72.5°F22.5°C 65.3°F18.5°C 78% 3.8 mph SW6.1 kmh SW 6.0 mph9.7 kmh 29.88 in1011.9 mb 0.00 in0.0 mm 0.00 in0.0 mm 0.01 in0.3 mm
09:20 AM 71.6°F22.0°C 65.1°F18.4°C 80% 3.8 mph SW6.1 kmh SW 6.9 mph11.1 kmh 29.88 in1011.9 mb 0.00 in0.0 mm 0.00 in0.0 mm 0.01 in0.3 mm
09:30 AM 69.4°F20.8°C 64.4°F18.0°C 84% 5.4 mph NW8.7 kmh NW 9.8 mph15.8 kmh 29.88 in1011.9 mb 0.00 in0.0 mm 0.00 in0.0 mm 0.01 in0.3 mm
09:40 AM 69.1°F20.6°C 64.1°F17.8°C 84% 5.4 mph WSW8.7 kmh WSW 9.8 mph15.8 kmh 29.88 in1011.9 mb 0.00 in0.0 mm 0.00 in0.0 mm 0.01 in0.3 mm
09:50 AM 70.0°F21.1°C 64.6°F18.1°C 83% 8.3 mph WSW13.4 kmh WSW 9.8 mph15.8 kmh 29.88 in1011.9 mb 0.00 in0.0 mm 0.00 in0.0 mm 0.01 in0.3 mm
10:00 AM 69.6°F20.9°C 64.3°F17.9°C 83% 6.9 mph WSW11.1 kmh WSW 10.7 mph17.2 kmh 29.88 in1011.9 mb 0.00 in0.0 mm 0.00 in0.0 mm 0.01 in0.3 mm
10:10 AM 68.0°F20.0°C 63.3°F17.4°C 85% 6.9 mph WSW11.1 kmh WSW 11.4 mph18.3 kmh 29.88 in1011.9 mb 0.00 in0.0 mm 0.00 in0.0 mm 0.01 in0.3 mm
10:20 AM 66.9°F19.4°C 63.3°F17.4°C 88% 6.9 mph SW11.1 kmh SW 9.8 mph15.8 kmh 29.89 in1012.2 mb 0.00 in0.0 mm 0.00 in0.0 mm 0.01 in0.3 mm
10:30 AM 66.6°F19.2°C 63.2°F17.3°C 89% 5.4 mph W8.7 kmh W 10.7 mph17.2 kmh 29.88 in1011.9 mb 0.00 in0.0 mm 0.00 in0.0 mm 0.01 in0.3 mm
10:40 AM 66.7°F19.3°C 62.8°F17.1°C 87% 6.9 mph SW11.1 kmh SW 10.7 mph17.2 kmh 29.88 in1011.9 mb 0.00 in0.0 mm 0.00 in0.0 mm 0.01 in0.3 mm
10:50 AM 66.6°F19.2°C 63.2°F17.3°C 89% 9.2 mph W14.8 kmh W 11.4 mph18.3 kmh 29.88 in1011.9 mb 0.00 in0.0 mm 0.00 in0.0 mm 0.01 in0.3 mm
11:00 AM 66.7°F19.3°C 63.4°F17.4°C 89% 7.6 mph SW12.2 kmh SW 12.1 mph19.5 kmh 29.88 in1011.9 mb 0.00 in0.0 mm 0.00 in0.0 mm 0.01 in0.3 mm
11:10 AM 66.9°F19.4°C 63.3°F17.4°C 88% 6.9 mph W11.1 kmh W 12.1 mph19.5 kmh 29.88 in1011.9 mb 0.00 in0.0 mm 0.00 in0.0 mm 0.01 in0.3 mm
11:20 AM 68.0°F20.0°C 63.7°F17.6°C 86% 6.0 mph WSW9.7 kmh WSW 12.1 mph19.5 kmh 29.89 in1012.2 mb 0.00 in0.0 mm 0.00 in0.0 mm 0.01 in0.3 mm
11:30 AM 68.7°F20.4°C 64.1°F17.8°C 85% 6.9 mph NW11.1 kmh NW 9.8 mph15.8 kmh 29.88 in1011.9 mb 0.00 in0.0 mm 0.00 in0.0 mm 0.01 in0.3 mm
11:40 AM 67.8°F19.9°C 63.8°F17.7°C 87% 5.4 mph SW8.7 kmh SW 9.8 mph15.8 kmh 29.88 in1011.9 mb 0.00 in0.0 mm 0.00 in0.0 mm 0.01 in0.3 mm
11:50 AM 66.9°F19.4°C 63.6°F17.6°C 89% 3.1 mph SSW5.0 kmh SSW 8.3 mph13.4 kmh 29.88 in1011.9 mb 0.00 in0.0 mm 0.00 in0.0 mm 0.01 in0.3 mm
12:00 PM 66.7°F19.3°C 64.1°F17.8°C 91% 3.8 mph SW6.1 kmh SW 6.0 mph9.7 kmh 29.88 in1011.9 mb 0.00 in0.0 mm 0.00 in0.0 mm 0.01 in0.3 mm
12:10 PM 66.4°F19.1°C 64.0°F17.8°C 92% 3.1 mph SE5.0 kmh SE 7.6 mph12.2 kmh 29.88 in1011.9 mb 0.00 in0.0 mm 0.00 in0.0 mm 0.01 in0.3 mm
12:20 PM 65.8°F18.8°C 63.8°F17.7°C 93% 4.5 mph ESE7.2 kmh ESE 8.3 mph13.4 kmh 29.87 in1011.5 mb 0.00 in0.0 mm 0.00 in0.0 mm 0.01 in0.3 mm
12:30 PM 66.2°F19.0°C 64.1°F17.8°C 93% 4.5 mph SE7.2 kmh SE 9.2 mph14.8 kmh 29.87 in1011.5 mb 0.00 in0.0 mm 0.00 in0.0 mm 0.01 in0.3 mm
12:40 PM 66.7°F19.3°C 64.1°F17.8°C 91% 2.2 mph E3.5 kmh E 8.3 mph13.4 kmh 29.87 in1011.5 mb 0.00 in0.0 mm 0.00 in0.0 mm 0.01 in0.3 mm
12:50 PM 68.0°F20.0°C 64.3°F17.9°C 88% 4.5 mph E7.2 kmh E 11.4 mph18.3 kmh 29.86 in1011.2 mb 0.00 in0.0 mm 0.00 in0.0 mm 0.01 in0.3 mm
01:00 PM 68.0°F20.0°C 64.0°F17.8°C 87% 2.2 mph SE3.5 kmh SE 9.2 mph14.8 kmh 29.86 in1011.2 mb 0.00 in0.0 mm 0.00 in0.0 mm 0.01 in0.3 mm
01:10 PM 69.6°F20.9°C 64.9°F18.3°C 85% 6.0 mph SE9.7 kmh SE 9.2 mph14.8 kmh 29.86 in1011.2 mb 0.01 in0.3 mm 0.06 in1.5 mm 0.02 in0.5 mm
01:20 PM 69.3°F20.7°C 63.6°F17.6°C 82% 4.5 mph SE7.2 kmh SE 9.8 mph15.8 kmh 29.86 in1011.2 mb 0.01 in0.3 mm 0.00 in0.0 mm 0.02 in0.5 mm
01:30 PM 68.2°F20.1°C 63.2°F17.3°C 84% 5.4 mph SE8.7 kmh SE 9.8 mph15.8 kmh 29.85 in1010.8 mb 0.01 in0.3 mm 0.00 in0.0 mm 0.02 in0.5 mm
01:40 PM 68.4°F20.2°C 63.7°F17.6°C 85% 3.8 mph SE6.1 kmh SE 9.2 mph14.8 kmh 29.86 in1011.2 mb 0.01 in0.3 mm 0.00 in0.0 mm 0.02 in0.5 mm
01:50 PM 67.8°F19.9°C 63.5°F17.5°C 86% 5.4 mph SSE8.7 kmh SSE 7.6 mph12.2 kmh 29.86 in1011.2 mb 0.01 in0.3 mm 0.00 in0.0 mm 0.02 in0.5 mm
02:00 PM 67.1°F19.5°C 63.1°F17.3°C 87% 4.5 mph WSW7.2 kmh WSW 9.2 mph14.8 kmh 29.86 in1011.2 mb 0.01 in0.3 mm 0.00 in0.0 mm 0.02 in0.5 mm
02:10 PM 66.7°F19.3°C 62.8°F17.1°C 87% 3.8 mph SW6.1 kmh SW 7.6 mph12.2 kmh 29.86 in1011.2 mb 0.00 in0.0 mm 0.00 in0.0 mm 0.02 in0.5 mm
02:20 PM 66.2°F19.0°C 63.2°F17.3°C 90% 6.9 mph SW11.1 kmh SW 8.3 mph13.4 kmh 29.85 in1010.8 mb 0.00 in0.0 mm 0.00 in0.0 mm 0.02 in0.5 mm
02:30 PM 65.5°F18.6°C 63.4°F17.4°C 93% 5.4 mph WSW8.7 kmh WSW 9.2 mph14.8 kmh 29.86 in1011.2 mb 0.01 in0.3 mm 0.06 in1.5 mm 0.04 in1.0 mm
02:40 PM 64.6°F18.1°C 62.8°F17.1°C 94% 6.9 mph SW11.1 kmh SW 10.7 mph17.2 kmh 29.86 in1011.2 mb 0.01 in0.3 mm 0.00 in0.0 mm 0.04 in1.0 mm
02:50 PM 63.9°F17.7°C 61.8°F16.6°C 93% 3.1 mph SW5.0 kmh SW 9.2 mph14.8 kmh 29.86 in1011.2 mb 0.01 in0.3 mm 0.00 in0.0 mm 0.04 in1.0 mm
03:00 PM 63.7°F17.6°C 62.2°F16.8°C 95% 0.7 mph SW1.1 kmh SW 4.5 mph7.2 kmh 29.86 in1011.2 mb 0.04 in1.0 mm 0.04 in1.0 mm 0.06 in1.5 mm
03:10 PM 63.5°F17.5°C 62.4°F16.9°C 96% 2.2 mph SW3.5 kmh SW 3.8 mph6.1 kmh 29.86 in1011.2 mb 0.04 in1.0 mm 0.00 in0.0 mm 0.06 in1.5 mm
03:20 PM 63.3°F17.4°C 62.2°F16.8°C 96% 2.2 mph E3.5 kmh E 3.8 mph6.1 kmh 29.86 in1011.2 mb 0.05 in1.3 mm 0.06 in1.5 mm 0.07 in1.8 mm
03:30 PM 63.1°F17.3°C 62.3°F16.8°C 97% Calm Calm 4.5 mph7.2 kmh 29.86 in1011.2 mb 0.05 in1.3 mm 0.00 in0.0 mm 0.08 in2.0 mm
03:40 PM 63.1°F17.3°C 62.3°F16.8°C 97% 0.7 mph ESE1.1 kmh ESE 2.2 mph3.5 kmh 29.86 in1011.2 mb 0.06 in1.5 mm 0.06 in1.5 mm 0.09 in2.3 mm
03:50 PM 63.1°F17.3°C 62.3°F16.8°C 97% 2.2 mph SE3.5 kmh SE 3.8 mph6.1 kmh 29.86 in1011.2 mb 0.07 in1.8 mm 0.06 in1.5 mm 0.11 in2.8 mm
04:00 PM 63.3°F17.4°C 62.5°F16.9°C 97% Calm Calm 3.8 mph6.1 kmh 29.84 in1010.5 mb 0.06 in1.5 mm 0.00 in0.0 mm 0.12 in3.0 mm
04:10 PM 63.5°F17.5°C 62.7°F17.1°C 97% Calm Calm -- 29.85 in1010.8 mb 0.06 in1.5 mm 0.00 in0.0 mm 0.12 in3.0 mm
04:20 PM 63.7°F17.6°C 62.8°F17.1°C 97% Calm Calm -- 29.85 in1010.8 mb 0.04 in1.0 mm 0.00 in0.0 mm 0.12 in3.0 mm
04:30 PM 63.9°F17.7°C 63.0°F17.2°C 97% Calm Calm -- 29.86 in1011.2 mb 0.04 in1.0 mm 0.00 in0.0 mm 0.12 in3.0 mm
04:40 PM 64.0°F17.8°C 63.2°F17.3°C 97% Calm Calm -- 29.85 in1010.8 mb 0.02 in0.5 mm 0.00 in0.0 mm 0.12 in3.0 mm
04:50 PM 64.2°F17.9°C 63.4°F17.4°C 97% Calm Calm -- 29.85 in1010.8 mb 0.01 in0.3 mm 0.00 in0.0 mm 0.12 in3.0 mm
05:00 PM 64.2°F17.9°C 63.4°F17.4°C 97% Calm Calm -- 29.86 in1011.2 mb 0.00 in0.0 mm 0.00 in0.0 mm 0.12 in3.0 mm
05:10 PM 64.2°F17.9°C 63.4°F17.4°C 97% Calm Calm -- 29.85 in1010.8 mb 0.01 in0.3 mm 0.06 in1.5 mm 0.13 in3.3 mm
05:20 PM 63.9°F17.7°C 63.0°F17.2°C 97% Calm Calm 0.7 mph1.1 kmh 29.85 in1010.8 mb 0.01 in0.3 mm 0.00 in0.0 mm 0.13 in3.3 mm
05:30 PM 64.2°F17.9°C 63.4°F17.4°C 97% Calm Calm -- 29.86 in1011.2 mb 0.01 in0.3 mm 0.00 in0.0 mm 0.13 in3.3 mm
05:40 PM 64.2°F17.9°C 63.4°F17.4°C 97% Calm Calm -- 29.86 in1011.2 mb 0.01 in0.3 mm 0.00 in0.0 mm 0.13 in3.3 mm
05:50 PM 64.0°F17.8°C 63.2°F17.3°C 97% Calm Calm -- 29.86 in1011.2 mb 0.01 in0.3 mm 0.00 in0.0 mm 0.13 in3.3 mm
06:00 PM 63.9°F17.7°C 63.0°F17.2°C 97% Calm Calm -- 29.86 in1011.2 mb 0.01 in0.3 mm 0.00 in0.0 mm 0.13 in3.3 mm
06:10 PM 63.9°F17.7°C 63.0°F17.2°C 97% Calm Calm -- 29.86 in1011.2 mb 0.00 in0.0 mm 0.00 in0.0 mm 0.13 in3.3 mm
06:20 PM 63.7°F17.6°C 62.8°F17.1°C 97% Calm Calm -- 29.86 in1011.2 mb 0.00 in0.0 mm 0.00 in0.0 mm 0.13 in3.3 mm
06:30 PM 63.5°F17.5°C 62.7°F17.1°C 97% Calm Calm -- 29.86 in1011.2 mb 0.00 in0.0 mm 0.00 in0.0 mm 0.13 in3.3 mm
06:40 PM 63.5°F17.5°C 62.7°F17.1°C 97% Calm Calm -- 29.87 in1011.5 mb 0.00 in0.0 mm 0.00 in0.0 mm 0.13 in3.3 mm
06:50 PM 63.3°F17.4°C 62.5°F16.9°C 97% Calm Calm -- 29.87 in1011.5 mb 0.00 in0.0 mm 0.00 in0.0 mm 0.13 in3.3 mm
07:00 PM 63.0°F17.2°C 62.1°F16.7°C 97% Calm Calm -- 29.88 in1011.9 mb 0.00 in0.0 mm 0.00 in0.0 mm 0.13 in3.3 mm
07:10 PM 62.8°F17.1°C 61.9°F16.6°C 97% Calm Calm 1.6 mph2.6 kmh 29.87 in1011.5 mb 0.00 in0.0 mm 0.00 in0.0 mm 0.13 in3.3 mm
07:20 PM 62.6°F17.0°C 61.8°F16.6°C 97% Calm Calm 2.2 mph3.5 kmh 29.87 in1011.5 mb 0.00 in0.0 mm 0.00 in0.0 mm 0.13 in3.3 mm
07:30 PM 62.2°F16.8°C 61.7°F16.5°C 98% Calm Calm 2.2 mph3.5 kmh 29.88 in1011.9 mb 0.00 in0.0 mm 0.00 in0.0 mm 0.13 in3.3 mm
07:40 PM 62.2°F16.8°C 61.7°F16.5°C 98% Calm Calm -- 29.88 in1011.9 mb 0.00 in0.0 mm 0.00 in0.0 mm 0.13 in3.3 mm
07:50 PM 62.2°F16.8°C 61.7°F16.5°C 98% Calm Calm -- 29.89 in1012.2 mb 0.00 in0.0 mm 0.00 in0.0 mm 0.13 in3.3 mm
08:00 PM 62.1°F16.7°C 61.5°F16.4°C 98% Calm Calm -- 29.89 in1012.2 mb 0.00 in0.0 mm 0.00 in0.0 mm 0.13 in3.3 mm
08:10 PM 62.2°F16.8°C 61.7°F16.5°C 98% Calm Calm -- 29.89 in1012.2 mb 0.00 in0.0 mm 0.00 in0.0 mm 0.13 in3.3 mm
08:20 PM 62.8°F17.1°C 61.9°F16.6°C 97% Calm Calm -- 29.90 in1012.5 mb 0.00 in0.0 mm 0.00 in0.0 mm 0.13 in3.3 mm
08:30 PM 62.2°F16.8°C 61.7°F16.5°C 98% Calm Calm -- 29.90 in1012.5 mb 0.00 in0.0 mm 0.00 in0.0 mm 0.13 in3.3 mm
08:40 PM 62.6°F17.0°C 61.8°F16.6°C 97% Calm Calm -- 29.91 in1012.9 mb 0.00 in0.0 mm 0.00 in0.0 mm 0.13 in3.3 mm
08:50 PM 62.1°F16.7°C 61.5°F16.4°C 98% Calm Calm -- 29.91 in1012.9 mb 0.00 in0.0 mm 0.00 in0.0 mm 0.13 in3.3 mm
09:00 PM 61.9°F16.6°C 61.3°F16.3°C 98% Calm Calm -- 29.91 in1012.9 mb 0.00 in0.0 mm 0.00 in0.0 mm 0.13 in3.3 mm
09:10 PM 61.9°F16.6°C 61.3°F16.3°C 98% Calm Calm -- 29.91 in1012.9 mb 0.00 in0.0 mm 0.00 in0.0 mm 0.13 in3.3 mm
09:20 PM 62.4°F16.9°C 61.9°F16.6°C 98% Calm Calm -- 29.91 in1012.9 mb 0.01 in0.3 mm 0.06 in1.5 mm 0.14 in3.6 mm
09:30 PM 61.9°F16.6°C 61.3°F16.3°C 98% Calm Calm -- 29.92 in1013.2 mb 0.01 in0.3 mm 0.00 in0.0 mm 0.14 in3.6 mm
09:40 PM 62.1°F16.7°C 61.5°F16.4°C 98% Calm Calm -- 29.91 in1012.9 mb 0.01 in0.3 mm 0.00 in0.0 mm 0.14 in3.6 mm
09:50 PM 62.1°F16.7°C 61.5°F16.4°C 98% Calm Calm -- 29.91 in1012.9 mb 0.01 in0.3 mm 0.00 in0.0 mm 0.14 in3.6 mm
10:00 PM 62.8°F17.1°C 61.9°F16.6°C 97% Calm Calm -- 29.92 in1013.2 mb 0.01 in0.3 mm 0.00 in0.0 mm 0.14 in3.6 mm
10:10 PM 61.9°F16.6°C 61.3°F16.3°C 98% Calm Calm -- 29.91 in1012.9 mb 0.01 in0.3 mm 0.00 in0.0 mm 0.14 in3.6 mm
10:20 PM 62.6°F17.0°C 61.8°F16.6°C 97% Calm Calm -- 29.91 in1012.9 mb 0.00 in0.0 mm 0.00 in0.0 mm 0.14 in3.6 mm
10:30 PM 61.9°F16.6°C 61.3°F16.3°C 98% Calm Calm -- 29.91 in1012.9 mb 0.00 in0.0 mm 0.00 in0.0 mm 0.14 in3.6 mm
10:40 PM 62.4°F16.9°C 61.9°F16.6°C 98% Calm Calm -- 29.91 in1012.9 mb 0.00 in0.0 mm 0.00 in0.0 mm 0.14 in3.6 mm
10:50 PM 61.9°F16.6°C 61.3°F16.3°C 98% Calm Calm -- 29.91 in1012.9 mb 0.00 in0.0 mm 0.00 in0.0 mm 0.14 in3.6 mm
11:00 PM 62.1°F16.7°C 61.5°F16.4°C 98% Calm Calm -- 29.91 in1012.9 mb 0.00 in0.0 mm 0.00 in0.0 mm 0.11 in2.8 mm
11:10 PM 61.7°F16.5°C 61.1°F16.2°C 98% Calm Calm -- 29.91 in1012.9 mb 0.00 in0.0 mm 0.00 in0.0 mm 0.11 in2.8 mm
11:20 PM 61.2°F16.2°C 60.6°F15.9°C 98% Calm Calm -- 29.91 in1012.9 mb 0.00 in0.0 mm 0.00 in0.0 mm 0.11 in2.8 mm
11:30 PM 61.7°F16.5°C 61.1°F16.2°C 98% Calm Calm -- 29.91 in1012.9 mb 0.00 in0.0 mm 0.00 in0.0 mm 0.11 in2.8 mm
11:40 PM 61.3°F16.3°C 60.8°F16.0°C 98% Calm Calm -- 29.91 in1012.9 mb 0.00 in0.0 mm 0.00 in0.0 mm 0.11 in2.8 mm
11:50 PM 61.9°F16.6°C 61.3°F16.3°C 98% Calm Calm -- 29.90 in1012.5 mb 0.00 in0.0 mm 0.00 in0.0 mm 0.11 in2.8 mm